USGS_WC_eartags_output_files_2009-2011-Status

Data source: USGS Alaska Science Center, Polar Bear Research Program

39,247 rows sorted by Transmits

View and edit SQL

Link rowid DeployID Ptt Received LocationQuality Latitude Longitude Transmits ▼ BattVoltage TransmitCurrent Temperature
272                    
411                    
976                    
1224                    
1728                    
1897                    
2379                    
2898                    
6803                    
7344                    
7488                    
8178                    
8687                    
9198                    
9557                    
9998                    
10824                    
11271                    
17702                    
17945                    
21047                    
21194                    
24931                    
27345                    
31838                    
32760                    
33676                    
34479                    
35214                    
1 20992 80435.0 12/9/2009 2:49 1 47.67599869 -122.1329956 128.0 3.36 0.312 21.63
2 20992 80435.0 12/9/2009 2:51 1 47.67599869 -122.1329956 128.0 3.36 0.308 21.73
3 20992 80435.0 12/9/2009 2:53 1 47.67599869 -122.1329956 128.0 3.36 0.312 21.73
4 20992 80435.0 12/9/2009 3:59       128.0 3.3280000000000003 0.888 20.79
5 20992 80435.0 12/9/2009 4:00       128.0 3.36 0.308 20.79
6 20992 80435.0 12/9/2009 4:03       128.0 3.36 0.312 20.7
8 20992 80435.0 12/9/2009 4:06       128.0 3.36 0.312 20.61
10 20992 80435.0 12/9/2009 4:10 1 47.6780014 -122.1329956 128.0 3.36 0.312 21.07
12 20992 80435.0 12/9/2009 4:14 1 47.6780014 -122.1329956 128.0 3.36 0.312 20.61
13 20992 80435.0 12/9/2009 4:15 1 47.6780014 -122.1329956 128.0 3.36 0.312 20.52
14 20992 80435.0 12/9/2009 4:16 1 47.6780014 -122.1329956 128.0 3.36 0.308 34.87
15 20992 80435.0 12/9/2009 4:17 1 47.6780014 -122.1329956 128.0 3.36 0.312 1.84
273 21225 80445.0 12/9/2009 2:27       128.0 3.248 0.284 19.51
274 21225 80445.0 12/9/2009 2:36       128.0 3.248 0.284 19.33
275 21225 80445.0 12/9/2009 2:50 3 47.67699814 -122.1340027 128.0 3.248 0.284 19.06
276 21225 80445.0 12/9/2009 2:54 3 47.67699814 -122.1340027 128.0 3.248 0.284 18.97
277 21225 80445.0 12/9/2009 2:56 3 47.67699814 -122.1340027 128.0 3.248 0.284 18.88
278 21225 80445.0 12/9/2009 4:04       128.0 3.248 0.284 17.63
279 21225 80445.0 12/9/2009 4:07       128.0 3.248 0.284 17.55
280 21225 80445.0 12/9/2009 4:09 3 47.67699814 -122.13699340000001 128.0 3.248 0.284 17.55
281 21225 80445.0 12/9/2009 4:13 3 47.67699814 -122.13699340000001 128.0 3.248 0.284 17.46
282 21225 80445.0 12/9/2009 4:16 3 47.67699814 -122.13699340000001 128.0 3.248 0.284 17.37
283 21225 80445.0 12/9/2009 4:17 3 47.67699814 -122.13699340000001 128.0 3.2319999999999998 0.284 17.37
284 21225 80445.0 12/9/2009 5:42 3 47.67900085 -122.13600159999999 128.0 3.2319999999999998 0.28 16.06
285 21225 80445.0 12/9/2009 5:45 3 47.67900085 -122.13600159999999 128.0 3.2319999999999998 0.28 15.98
286 21225 80445.0 12/9/2009 5:49 3 47.67699814 -122.1340027 128.0 3.2319999999999998 0.28 16.15
287 21225 80445.0 12/9/2009 5:56 3 47.67699814 -122.1340027 128.0 3.2319999999999998 0.28 16.24
977 20520 91377.0 12/9/2009 2:26 0 47.67200089 -122.128006 128.0 3.3280000000000003 0.392 20.98
978 20520 91377.0 12/9/2009 2:28 0 47.67200089 -122.128006 128.0 3.3280000000000003 0.396 20.98
979 20520 91377.0 12/9/2009 2:36       128.0 3.3280000000000003 0.396 20.79
980 20520 91377.0 12/9/2009 2:49 3 47.67699814 -122.1349945 128.0 3.3280000000000003 0.396 20.7
981 20520 91377.0 12/9/2009 2:50 3 47.67699814 -122.1349945 128.0 3.3280000000000003 0.396 20.61
982 20520 91377.0 12/9/2009 2:55 3 47.67699814 -122.1349945 128.0 3.3280000000000003 0.396 20.61
983 20520 91377.0 12/9/2009 2:57 3 47.67699814 -122.1349945 128.0 3.3280000000000003 0.392 20.61
984 20520 91377.0 12/9/2009 4:03       128.0 3.3280000000000003 0.396 19.69
985 20520 91377.0 12/9/2009 4:05       128.0 3.3280000000000003 0.396 19.6
986 20520 91377.0 12/9/2009 4:07       128.0 3.3280000000000003 0.396 19.51
987 20520 91377.0 12/9/2009 4:08       128.0 3.3280000000000003 0.396 19.51
988 20520 91377.0 12/9/2009 4:11 3 47.67699814 -122.13600159999999 128.0 3.3280000000000003 0.392 19.51
989 20520 91377.0 12/9/2009 4:13 3 47.67699814 -122.13600159999999 128.0 3.3280000000000003 0.396 19.51
990 20520 91377.0 12/9/2009 4:15 3 47.67699814 -122.13600159999999 128.0 3.3280000000000003 0.396 19.42
991 20520 91377.0 12/9/2009 4:16 3 47.67699814 -122.13600159999999 128.0 3.3280000000000003 0.392 19.42
992 20520 91377.0 12/9/2009 5:41 3 47.6780014 -122.1349945 128.0 3.3280000000000003 0.396 17.99
2380 21152 96863.0 7/22/2009 1:55 3 47.67699814 -122.1340027 128.0 3.3280000000000003 0.304 22.77
2381 21152 96863.0 7/22/2009 2:00 3 47.67699814 -122.1340027 128.0 3.344 0.304 22.77
2382 21152 96863.0 7/22/2009 2:01 3 47.67699814 -122.1340027 128.0 3.344 0.304 22.67
2383 21152 96863.0 7/22/2009 2:34 B 47.68399811 -122.128006 128.0 3.344 0.304 22.1
2385 21152 96863.0 7/22/2009 3:24 3 47.6780014 -122.1349945 128.0 3.344 0.304 21.35
2386 21152 96863.0 7/22/2009 3:25 3 47.6780014 -122.1349945 128.0 3.344 0.308 21.44
2387 21152 96863.0 7/22/2009 3:26 3 47.6780014 -122.1349945 128.0 3.344 0.304 21.44
2388 21152 96863.0 7/22/2009 3:27 3 47.6780014 -122.1349945 128.0 3.344 0.308 21.35
2389 21152 96863.0 7/22/2009 4:06 3 47.6780014 -122.13600159999999 128.0 3.344 0.304 20.88
2390 21152 96863.0 7/22/2009 4:08 3 47.6780014 -122.13600159999999 128.0 3.344 0.308 20.88
2391 21152 96863.0 7/22/2009 4:09 3 47.6780014 -122.13600159999999 128.0 3.344 0.304 20.88
2392 21152 96863.0 7/22/2009 4:11 3 47.6780014 -122.13600159999999 128.0 3.344 0.308 20.88
2393 21152 96863.0 7/22/2009 4:13 3 47.6780014 -122.13600159999999 128.0 3.344 0.304 20.79
2394 21152 96863.0 7/22/2009 4:14 3 47.6780014 -122.13600159999999 128.0 3.344 0.308 20.79
2395 21152 96863.0 7/22/2009 4:59 2 47.6780014 -122.1309967 128.0 3.344 0.304 20.24
2396 21152 96863.0 7/22/2009 5:05 2 47.6780014 -122.1309967 128.0 3.344 0.308 20.15
2397 21152 96863.0 7/22/2009 5:06 2 47.6780014 -122.1309967 128.0 3.344 0.304 20.15
2899 20845 96864.0 7/22/2009 1:57 3 47.67699814 -122.1329956 128.0 3.408 0.272 21.54
2900 20845 96864.0 7/22/2009 1:59 3 47.67699814 -122.1329956 128.0 3.344 0.272 21.54
2901 20845 96864.0 7/22/2009 2:00 3 47.67699814 -122.1329956 128.0 3.344 0.272 21.54
2902 20845 96864.0 7/22/2009 2:01 3 47.67699814 -122.1329956 128.0 3.344 0.272 21.54
2903 20845 96864.0 7/22/2009 3:22 3 47.67599869 -122.1340027 128.0 3.344 0.272 21.35
2904 20845 96864.0 7/22/2009 3:23 3 47.67599869 -122.1340027 128.0 3.344 0.272 21.35
2905 20845 96864.0 7/22/2009 3:27 3 47.67599869 -122.1340027 128.0 3.344 0.272 21.26
2906 20845 96864.0 7/22/2009 4:12 3 47.67699814 -122.13699340000001 128.0 3.344 0.272 20.88
5781 20845 96864.0 12/7/2009 23:42 A 70.18000031 -145.970993 128.0 3.36 0.23199999999999998 23.93
6768 20845 96864.0 7/15/2010 2:39 3 47.6780014 -122.1329956 128.0 3.36 0.23600000000000002 24.83
6769 20845 96864.0 7/15/2010 2:42 3 47.6780014 -122.1329956 128.0 3.36 0.23600000000000002 24.92

Next page

Advanced export

JSON shape: default, array, newline-delimited

CSV options:

CREATE TABLE "USGS_WC_eartags_output_files_2009-2011-Status" (
"DeployID" TEXT,
  "Ptt" REAL,
  "Received" TEXT,
  "LocationQuality" TEXT,
  "Latitude" REAL,
  "Longitude" REAL,
  "Transmits" REAL,
  "BattVoltage" REAL,
  "TransmitCurrent" REAL,
  "Temperature" REAL
);
CREATE INDEX "ix_USGS_WC_eartags_output_files_2009-2011-Status_DeployID"ON "USGS_WC_eartags_output_files_2009-2011-Status" ("DeployID");
Powered by Datasette · Query took 1107.062ms · Data source: USGS Alaska Science Center, Polar Bear Research Program